sensor_id;sensor_type;location;lat;lon;timestamp;P1;durP1;ratioP1;P2;durP2;ratioP2
78778;SDS011;68121;52.404;5.318;2023-04-07T00:02:04;6.85;;;2.67;;
78778;SDS011;68121;52.404;5.318;2023-04-07T00:04:30;5.93;;;2.75;;
78778;SDS011;68121;52.404;5.318;2023-04-07T00:06:56;7.80;;;2.67;;
78778;SDS011;68121;52.404;5.318;2023-04-07T00:09:22;5.72;;;2.85;;
78778;SDS011;68121;52.404;5.318;2023-04-07T00:11:48;7.75;;;2.20;;
78778;SDS011;68121;52.404;5.318;2023-04-07T00:14:15;8.48;;;3.15;;
78778;SDS011;68121;52.404;5.318;2023-04-07T00:16:41;5.82;;;2.65;;
78778;SDS011;68121;52.404;5.318;2023-04-07T00:19:07;8.73;;;3.92;;
78778;SDS011;68121;52.404;5.318;2023-04-07T00:21:33;13.05;;;3.70;;
78778;SDS011;68121;52.404;5.318;2023-04-07T00:23:59;6.80;;;3.53;;
78778;SDS011;68121;52.404;5.318;2023-04-07T00:26:25;9.73;;;4.30;;
78778;SDS011;68121;52.404;5.318;2023-04-07T00:28:56;9.75;;;4.35;;
78778;SDS011;68121;52.404;5.318;2023-04-07T00:31:23;15.10;;;4.75;;
78778;SDS011;68121;52.404;5.318;2023-04-07T00:33:49;12.25;;;4.13;;
78778;SDS011;68121;52.404;5.318;2023-04-07T00:36:15;11.88;;;4.30;;
78778;SDS011;68121;52.404;5.318;2023-04-07T00:38:41;9.82;;;4.13;;
78778;SDS011;68121;52.404;5.318;2023-04-07T00:41:07;8.98;;;3.80;;
78778;SDS011;68121;52.404;5.318;2023-04-07T00:43:33;12.65;;;4.32;;
78778;SDS011;68121;52.404;5.318;2023-04-07T00:46:00;9.23;;;3.88;;
78778;SDS011;68121;52.404;5.318;2023-04-07T00:48:26;12.07;;;4.03;;
78778;SDS011;68121;52.404;5.318;2023-04-07T00:50:52;10.35;;;4.00;;
78778;SDS011;68121;52.404;5.318;2023-04-07T00:53:18;10.32;;;3.75;;
78778;SDS011;68121;52.404;5.318;2023-04-07T00:55:44;9.18;;;3.47;;
78778;SDS011;68121;52.404;5.318;2023-04-07T00:58:10;17.35;;;4.65;;
78778;SDS011;68121;52.404;5.318;2023-04-07T01:00:41;8.40;;;4.10;;
78778;SDS011;68121;52.404;5.318;2023-04-07T01:03:17;9.98;;;3.25;;
78778;SDS011;68121;52.404;5.318;2023-04-07T01:06:00;12.43;;;3.75;;
78778;SDS011;68121;52.404;5.318;2023-04-07T01:08:37;11.48;;;3.33;;
78778;SDS011;68121;52.404;5.318;2023-04-07T01:11:24;9.50;;;3.58;;
78778;SDS011;68121;52.404;5.318;2023-04-07T01:13:55;8.50;;;3.80;;
78778;SDS011;68121;52.404;5.318;2023-04-07T01:16:31;7.55;;;3.45;;
78778;SDS011;68121;52.404;5.318;2023-04-07T01:19:47;11.60;;;3.45;;
78778;SDS011;68121;52.404;5.318;2023-04-07T01:21:53;11.43;;;4.03;;
78778;SDS011;68121;52.404;5.318;2023-04-07T01:24:31;12.93;;;4.13;;
78778;SDS011;68121;52.404;5.318;2023-04-07T01:27:13;12.27;;;3.90;;
78778;SDS011;68121;52.404;5.318;2023-04-07T01:30:02;10.05;;;3.60;;
78778;SDS011;68121;52.404;5.318;2023-04-07T01:32:32;6.07;;;2.70;;
78778;SDS011;68121;52.404;5.318;2023-04-07T01:35:00;11.48;;;3.03;;
78778;SDS011;68121;52.404;5.318;2023-04-07T01:37:29;7.53;;;3.72;;
78778;SDS011;68121;52.404;5.318;2023-04-07T01:39:56;10.20;;;3.28;;
78778;SDS011;68121;52.404;5.318;2023-04-07T01:42:22;10.20;;;3.95;;
78778;SDS011;68121;52.404;5.318;2023-04-07T01:44:50;13.60;;;3.75;;
78778;SDS011;68121;52.404;5.318;2023-04-07T01:47:17;8.23;;;2.92;;
78778;SDS011;68121;52.404;5.318;2023-04-07T01:49:43;10.82;;;3.17;;
78778;SDS011;68121;52.404;5.318;2023-04-07T01:52:11;11.73;;;3.78;;
78778;SDS011;68121;52.404;5.318;2023-04-07T01:54:38;10.50;;;3.40;;
78778;SDS011;68121;52.404;5.318;2023-04-07T01:57:05;14.35;;;3.85;;
78778;SDS011;68121;52.404;5.318;2023-04-07T01:59:31;13.95;;;3.35;;
78778;SDS011;68121;52.404;5.318;2023-04-07T02:01:57;9.40;;;3.33;;
78778;SDS011;68121;52.404;5.318;2023-04-07T02:06:53;10.90;;;4.25;;
78778;SDS011;68121;52.404;5.318;2023-04-07T02:09:23;9.60;;;3.75;;
78778;SDS011;68121;52.404;5.318;2023-04-07T02:11:53;11.85;;;3.70;;
78778;SDS011;68121;52.404;5.318;2023-04-07T02:14:22;8.13;;;4.10;;
78778;SDS011;68121;52.404;5.318;2023-04-07T02:16:49;8.60;;;3.30;;
78778;SDS011;68121;52.404;5.318;2023-04-07T02:19:17;8.60;;;3.50;;
78778;SDS011;68121;52.404;5.318;2023-04-07T02:21:45;16.15;;;4.50;;
78778;SDS011;68121;52.404;5.318;2023-04-07T02:24:13;15.10;;;4.70;;
78778;SDS011;68121;52.404;5.318;2023-04-07T02:26:39;15.38;;;4.25;;
78778;SDS011;68121;52.404;5.318;2023-04-07T02:29:06;13.40;;;4.40;;
78778;SDS011;68121;52.404;5.318;2023-04-07T02:31:32;13.23;;;4.75;;
78778;SDS011;68121;52.404;5.318;2023-04-07T02:33:58;20.00;;;5.05;;
78778;SDS011;68121;52.404;5.318;2023-04-07T02:36:24;13.25;;;4.75;;
78778;SDS011;68121;52.404;5.318;2023-04-07T02:38:51;13.88;;;4.57;;
78778;SDS011;68121;52.404;5.318;2023-04-07T02:41:17;18.92;;;5.07;;
78778;SDS011;68121;52.404;5.318;2023-04-07T02:43:43;13.00;;;5.13;;
78778;SDS011;68121;52.404;5.318;2023-04-07T02:46:09;11.65;;;5.10;;
78778;SDS011;68121;52.404;5.318;2023-04-07T02:48:35;11.38;;;4.20;;
78778;SDS011;68121;52.404;5.318;2023-04-07T02:51:01;11.57;;;4.22;;
78778;SDS011;68121;52.404;5.318;2023-04-07T02:53:28;15.88;;;4.95;;
78778;SDS011;68121;52.404;5.318;2023-04-07T02:55:54;12.15;;;4.25;;
78778;SDS011;68121;52.404;5.318;2023-04-07T02:58:20;10.38;;;4.40;;
78778;SDS011;68121;52.404;5.318;2023-04-07T03:00:46;10.18;;;3.70;;
78778;SDS011;68121;52.404;5.318;2023-04-07T03:03:13;6.80;;;3.30;;
78778;SDS011;68121;52.404;5.318;2023-04-07T03:05:39;10.48;;;3.45;;
78778;SDS011;68121;52.404;5.318;2023-04-07T03:08:05;8.95;;;3.90;;
78778;SDS011;68121;52.404;5.318;2023-04-07T03:10:31;8.55;;;2.80;;
78778;SDS011;68121;52.404;5.318;2023-04-07T03:12:57;9.55;;;4.32;;
78778;SDS011;68121;52.404;5.318;2023-04-07T03:15:23;11.98;;;3.00;;
78778;SDS011;68121;52.404;5.318;2023-04-07T03:17:49;9.75;;;3.25;;
78778;SDS011;68121;52.404;5.318;2023-04-07T03:20:15;10.63;;;3.20;;
78778;SDS011;68121;52.404;5.318;2023-04-07T03:22:41;11.60;;;3.47;;
78778;SDS011;68121;52.404;5.318;2023-04-07T03:25:09;9.02;;;3.22;;
78778;SDS011;68121;52.404;5.318;2023-04-07T03:27:35;10.48;;;4.00;;
78778;SDS011;68121;52.404;5.318;2023-04-07T03:30:01;11.52;;;3.53;;
78778;SDS011;68121;52.404;5.318;2023-04-07T03:32:28;8.10;;;3.45;;
78778;SDS011;68121;52.404;5.318;2023-04-07T03:34:54;12.70;;;4.45;;
78778;SDS011;68121;52.404;5.318;2023-04-07T03:37:20;12.30;;;4.18;;
78778;SDS011;68121;52.404;5.318;2023-04-07T03:39:46;11.05;;;3.97;;
78778;SDS011;68121;52.404;5.318;2023-04-07T03:42:12;10.63;;;4.10;;
78778;SDS011;68121;52.404;5.318;2023-04-07T03:44:38;11.13;;;4.55;;
78778;SDS011;68121;52.404;5.318;2023-04-07T03:47:04;11.88;;;3.85;;
78778;SDS011;68121;52.404;5.318;2023-04-07T03:49:30;11.45;;;4.47;;
78778;SDS011;68121;52.404;5.318;2023-04-07T03:51:56;6.72;;;2.97;;
78778;SDS011;68121;52.404;5.318;2023-04-07T03:54:23;10.65;;;3.15;;
78778;SDS011;68121;52.404;5.318;2023-04-07T03:56:49;8.88;;;3.20;;
78778;SDS011;68121;52.404;5.318;2023-04-07T03:59:15;7.53;;;2.50;;
78778;SDS011;68121;52.404;5.318;2023-04-07T04:01:41;8.45;;;2.70;;
78778;SDS011;68121;52.404;5.318;2023-04-07T04:04:07;10.15;;;2.75;;
78778;SDS011;68121;52.404;5.318;2023-04-07T04:06:33;10.13;;;2.95;;
78778;SDS011;68121;52.404;5.318;2023-04-07T04:08:59;8.18;;;2.25;;
78778;SDS011;68121;52.404;5.318;2023-04-07T04:11:25;6.60;;;2.53;;
78778;SDS011;68121;52.404;5.318;2023-04-07T04:13:51;6.18;;;2.60;;
78778;SDS011;68121;52.404;5.318;2023-04-07T04:16:17;10.10;;;2.47;;
78778;SDS011;68121;52.404;5.318;2023-04-07T04:18:44;8.60;;;2.90;;
78778;SDS011;68121;52.404;5.318;2023-04-07T04:21:10;7.50;;;2.58;;
78778;SDS011;68121;52.404;5.318;2023-04-07T04:23:36;8.35;;;2.80;;
78778;SDS011;68121;52.404;5.318;2023-04-07T04:26:02;8.63;;;3.05;;
78778;SDS011;68121;52.404;5.318;2023-04-07T04:28:28;7.72;;;2.60;;
78778;SDS011;68121;52.404;5.318;2023-04-07T04:30:54;6.72;;;2.38;;
78778;SDS011;68121;52.404;5.318;2023-04-07T04:33:20;7.85;;;2.58;;
78778;SDS011;68121;52.404;5.318;2023-04-07T04:35:47;8.40;;;2.33;;
78778;SDS011;68121;52.404;5.318;2023-04-07T04:38:13;9.90;;;3.22;;
78778;SDS011;68121;52.404;5.318;2023-04-07T04:40:39;8.32;;;2.97;;
78778;SDS011;68121;52.404;5.318;2023-04-07T04:43:05;9.85;;;2.60;;
78778;SDS011;68121;52.404;5.318;2023-04-07T04:45:32;10.70;;;3.08;;
78778;SDS011;68121;52.404;5.318;2023-04-07T04:47:58;8.38;;;2.40;;
78778;SDS011;68121;52.404;5.318;2023-04-07T04:50:24;10.10;;;2.70;;
78778;SDS011;68121;52.404;5.318;2023-04-07T04:52:50;11.60;;;2.78;;
78778;SDS011;68121;52.404;5.318;2023-04-07T04:55:16;8.52;;;2.60;;
78778;SDS011;68121;52.404;5.318;2023-04-07T04:57:42;8.85;;;2.90;;
78778;SDS011;68121;52.404;5.318;2023-04-07T05:00:08;8.98;;;3.30;;
78778;SDS011;68121;52.404;5.318;2023-04-07T05:02:35;9.35;;;2.50;;
78778;SDS011;68121;52.404;5.318;2023-04-07T05:05:01;9.48;;;3.65;;
78778;SDS011;68121;52.404;5.318;2023-04-07T05:07:28;12.63;;;2.60;;
78778;SDS011;68121;52.404;5.318;2023-04-07T05:09:54;7.68;;;2.65;;
78778;SDS011;68121;52.404;5.318;2023-04-07T05:12:21;8.18;;;2.80;;
78778;SDS011;68121;52.404;5.318;2023-04-07T05:14:47;12.70;;;3.38;;
78778;SDS011;68121;52.404;5.318;2023-04-07T05:17:13;8.85;;;2.72;;
78778;SDS011;68121;52.404;5.318;2023-04-07T05:19:39;15.10;;;4.25;;
78778;SDS011;68121;52.404;5.318;2023-04-07T05:22:05;10.65;;;2.92;;
78778;SDS011;68121;52.404;5.318;2023-04-07T05:24:31;10.40;;;2.90;;
78778;SDS011;68121;52.404;5.318;2023-04-07T05:26:57;10.05;;;3.00;;
78778;SDS011;68121;52.404;5.318;2023-04-07T05:29:23;11.45;;;3.70;;
78778;SDS011;68121;52.404;5.318;2023-04-07T05:31:49;7.90;;;2.63;;
78778;SDS011;68121;52.404;5.318;2023-04-07T05:34:15;12.63;;;3.15;;
78778;SDS011;68121;52.404;5.318;2023-04-07T05:36:41;6.65;;;2.85;;
78778;SDS011;68121;52.404;5.318;2023-04-07T05:39:07;11.18;;;3.67;;
78778;SDS011;68121;52.404;5.318;2023-04-07T05:41:33;8.90;;;3.35;;
78778;SDS011;68121;52.404;5.318;2023-04-07T05:43:59;12.88;;;3.45;;
78778;SDS011;68121;52.404;5.318;2023-04-07T05:46:25;10.75;;;3.90;;
78778;SDS011;68121;52.404;5.318;2023-04-07T05:48:52;7.97;;;3.22;;
78778;SDS011;68121;52.404;5.318;2023-04-07T05:51:18;10.77;;;3.30;;
78778;SDS011;68121;52.404;5.318;2023-04-07T05:53:44;7.57;;;1.98;;
78778;SDS011;68121;52.404;5.318;2023-04-07T05:56:10;6.28;;;3.03;;
78778;SDS011;68121;52.404;5.318;2023-04-07T05:58:36;9.98;;;2.75;;
78778;SDS011;68121;52.404;5.318;2023-04-07T06:01:02;12.15;;;2.88;;
78778;SDS011;68121;52.404;5.318;2023-04-07T06:03:28;7.70;;;2.78;;
78778;SDS011;68121;52.404;5.318;2023-04-07T06:05:54;7.40;;;2.67;;
78778;SDS011;68121;52.404;5.318;2023-04-07T06:08:22;6.43;;;2.15;;
78778;SDS011;68121;52.404;5.318;2023-04-07T06:10:48;8.35;;;2.78;;
78778;SDS011;68121;52.404;5.318;2023-04-07T06:13:14;12.65;;;3.58;;
78778;SDS011;68121;52.404;5.318;2023-04-07T06:15:40;8.15;;;2.78;;
78778;SDS011;68121;52.404;5.318;2023-04-07T06:18:06;10.93;;;2.45;;
78778;SDS011;68121;52.404;5.318;2023-04-07T06:20:32;7.72;;;2.55;;
78778;SDS011;68121;52.404;5.318;2023-04-07T06:23:00;6.93;;;2.22;;
78778;SDS011;68121;52.404;5.318;2023-04-07T06:25:26;7.22;;;2.00;;
78778;SDS011;68121;52.404;5.318;2023-04-07T06:27:52;10.48;;;3.45;;
78778;SDS011;68121;52.404;5.318;2023-04-07T06:30:19;13.45;;;2.72;;
78778;SDS011;68121;52.404;5.318;2023-04-07T06:32:45;12.35;;;2.90;;
78778;SDS011;68121;52.404;5.318;2023-04-07T06:35:11;14.55;;;3.17;;
78778;SDS011;68121;52.404;5.318;2023-04-07T06:37:37;9.40;;;2.63;;
78778;SDS011;68121;52.404;5.318;2023-04-07T06:40:04;8.15;;;2.47;;
78778;SDS011;68121;52.404;5.318;2023-04-07T06:42:31;10.60;;;3.45;;
78778;SDS011;68121;52.404;5.318;2023-04-07T06:44:57;10.48;;;3.17;;
78778;SDS011;68121;52.404;5.318;2023-04-07T06:47:23;5.90;;;2.05;;
78778;SDS011;68121;52.404;5.318;2023-04-07T06:49:49;5.55;;;2.17;;
78778;SDS011;68121;52.404;5.318;2023-04-07T06:52:15;5.57;;;1.95;;
78778;SDS011;68121;52.404;5.318;2023-04-07T06:54:41;7.68;;;2.58;;
78778;SDS011;68121;52.404;5.318;2023-04-07T06:57:08;9.93;;;2.53;;
78778;SDS011;68121;52.404;5.318;2023-04-07T06:59:36;6.32;;;2.58;;
78778;SDS011;68121;52.404;5.318;2023-04-07T07:02:03;8.45;;;2.40;;
78778;SDS011;68121;52.404;5.318;2023-04-07T07:04:29;9.95;;;2.28;;
78778;SDS011;68121;52.404;5.318;2023-04-07T07:06:55;9.52;;;2.72;;
78778;SDS011;68121;52.404;5.318;2023-04-07T07:09:21;6.90;;;2.38;;
78778;SDS011;68121;52.404;5.318;2023-04-07T07:11:47;8.65;;;2.97;;
78778;SDS011;68121;52.404;5.318;2023-04-07T07:14:13;10.30;;;2.20;;
78778;SDS011;68121;52.404;5.318;2023-04-07T07:16:39;10.75;;;2.53;;
78778;SDS011;68121;52.404;5.318;2023-04-07T07:19:05;8.15;;;3.28;;
78778;SDS011;68121;52.404;5.318;2023-04-07T07:21:31;9.43;;;2.85;;
78778;SDS011;68121;52.404;5.318;2023-04-07T07:23:57;8.70;;;2.83;;
78778;SDS011;68121;52.404;5.318;2023-04-07T07:26:23;12.40;;;3.08;;
78778;SDS011;68121;52.404;5.318;2023-04-07T07:28:50;10.13;;;2.70;;
78778;SDS011;68121;52.404;5.318;2023-04-07T07:31:16;6.90;;;3.40;;
78778;SDS011;68121;52.404;5.318;2023-04-07T07:33:43;11.15;;;2.72;;
78778;SDS011;68121;52.404;5.318;2023-04-07T07:36:10;9.93;;;2.97;;
78778;SDS011;68121;52.404;5.318;2023-04-07T07:38:37;10.88;;;2.40;;
78778;SDS011;68121;52.404;5.318;2023-04-07T07:41:05;7.80;;;3.13;;
78778;SDS011;68121;52.404;5.318;2023-04-07T07:43:31;5.93;;;2.03;;
78778;SDS011;68121;52.404;5.318;2023-04-07T07:45:57;6.95;;;2.05;;
78778;SDS011;68121;52.404;5.318;2023-04-07T07:48:23;9.75;;;1.80;;
78778;SDS011;68121;52.404;5.318;2023-04-07T07:50:49;6.65;;;2.85;;
78778;SDS011;68121;52.404;5.318;2023-04-07T07:53:16;7.15;;;2.30;;
78778;SDS011;68121;52.404;5.318;2023-04-07T07:55:44;6.55;;;2.50;;
78778;SDS011;68121;52.404;5.318;2023-04-07T07:58:10;9.27;;;2.08;;
78778;SDS011;68121;52.404;5.318;2023-04-07T08:00:36;12.23;;;2.67;;
78778;SDS011;68121;52.404;5.318;2023-04-07T08:03:03;9.88;;;2.30;;
78778;SDS011;68121;52.404;5.318;2023-04-07T08:05:29;6.32;;;2.08;;
78778;SDS011;68121;52.404;5.318;2023-04-07T08:07:55;6.93;;;2.50;;
78778;SDS011;68121;52.404;5.318;2023-04-07T08:10:21;5.82;;;2.17;;
78778;SDS011;68121;52.404;5.318;2023-04-07T08:12:49;9.82;;;2.40;;
78778;SDS011;68121;52.404;5.318;2023-04-07T08:15:15;6.20;;;2.40;;
78778;SDS011;68121;52.404;5.318;2023-04-07T08:17:42;6.28;;;2.70;;
78778;SDS011;68121;52.404;5.318;2023-04-07T08:20:08;8.45;;;2.58;;
78778;SDS011;68121;52.404;5.318;2023-04-07T08:22:35;5.15;;;1.85;;
78778;SDS011;68121;52.404;5.318;2023-04-07T08:25:02;7.30;;;2.20;;
78778;SDS011;68121;52.404;5.318;2023-04-07T08:27:28;9.10;;;2.20;;
78778;SDS011;68121;52.404;5.318;2023-04-07T08:29:58;7.95;;;2.53;;
78778;SDS011;68121;52.404;5.318;2023-04-07T08:32:25;13.57;;;2.72;;
78778;SDS011;68121;52.404;5.318;2023-04-07T08:34:58;7.40;;;2.17;;
78778;SDS011;68121;52.404;5.318;2023-04-07T08:37:24;8.20;;;1.98;;
78778;SDS011;68121;52.404;5.318;2023-04-07T08:39:50;8.27;;;2.92;;
78778;SDS011;68121;52.404;5.318;2023-04-07T08:42:16;7.30;;;2.20;;
78778;SDS011;68121;52.404;5.318;2023-04-07T08:44:44;6.63;;;2.40;;
78778;SDS011;68121;52.404;5.318;2023-04-07T08:47:12;5.43;;;2.10;;
78778;SDS011;68121;52.404;5.318;2023-04-07T08:49:42;5.38;;;2.05;;
78778;SDS011;68121;52.404;5.318;2023-04-07T08:52:10;5.82;;;1.90;;
78778;SDS011;68121;52.404;5.318;2023-04-07T08:54:40;8.55;;;1.88;;
78778;SDS011;68121;52.404;5.318;2023-04-07T08:57:08;7.93;;;2.53;;
78778;SDS011;68121;52.404;5.318;2023-04-07T08:59:35;5.15;;;2.28;;
78778;SDS011;68121;52.404;5.318;2023-04-07T09:02:01;6.75;;;2.30;;
78778;SDS011;68121;52.404;5.318;2023-04-07T09:04:29;8.38;;;2.30;;
78778;SDS011;68121;52.404;5.318;2023-04-07T09:06:55;9.20;;;2.60;;
78778;SDS011;68121;52.404;5.318;2023-04-07T09:09:21;7.57;;;2.30;;
78778;SDS011;68121;52.404;5.318;2023-04-07T09:11:48;7.82;;;2.80;;
78778;SDS011;68121;52.404;5.318;2023-04-07T09:14:15;5.53;;;2.42;;
78778;SDS011;68121;52.404;5.318;2023-04-07T09:16:43;9.80;;;2.40;;
78778;SDS011;68121;52.404;5.318;2023-04-07T09:19:09;7.07;;;2.00;;
78778;SDS011;68121;52.404;5.318;2023-04-07T09:21:48;8.18;;;2.17;;
78778;SDS011;68121;52.404;5.318;2023-04-07T09:24:25;7.35;;;2.20;;
78778;SDS011;68121;52.404;5.318;2023-04-07T09:27:07;10.13;;;2.92;;
78778;SDS011;68121;52.404;5.318;2023-04-07T09:29:42;5.00;;;2.22;;
78778;SDS011;68121;52.404;5.318;2023-04-07T09:32:09;8.05;;;2.22;;
78778;SDS011;68121;52.404;5.318;2023-04-07T09:34:36;6.15;;;2.17;;
78778;SDS011;68121;52.404;5.318;2023-04-07T09:37:04;7.53;;;2.30;;
78778;SDS011;68121;52.404;5.318;2023-04-07T09:39:31;3.75;;;2.28;;
78778;SDS011;68121;52.404;5.318;2023-04-07T09:41:57;7.63;;;2.67;;
78778;SDS011;68121;52.404;5.318;2023-04-07T09:44:31;9.35;;;2.70;;
78778;SDS011;68121;52.404;5.318;2023-04-07T09:47:05;7.35;;;2.58;;
78778;SDS011;68121;52.404;5.318;2023-04-07T09:49:31;7.07;;;2.53;;
78778;SDS011;68121;52.404;5.318;2023-04-07T09:51:59;6.45;;;2.28;;
78778;SDS011;68121;52.404;5.318;2023-04-07T09:54:32;7.75;;;2.15;;
78778;SDS011;68121;52.404;5.318;2023-04-07T09:57:02;10.48;;;2.80;;
78778;SDS011;68121;52.404;5.318;2023-04-07T09:59:29;8.48;;;2.85;;
78778;SDS011;68121;52.404;5.318;2023-04-07T10:01:57;9.43;;;2.53;;
78778;SDS011;68121;52.404;5.318;2023-04-07T10:04:23;10.05;;;2.53;;
78778;SDS011;68121;52.404;5.318;2023-04-07T10:06:51;7.15;;;1.80;;
78778;SDS011;68121;52.404;5.318;2023-04-07T10:09:21;8.73;;;2.05;;
78778;SDS011;68121;52.404;5.318;2023-04-07T10:11:49;10.48;;;1.73;;
78778;SDS011;68121;52.404;5.318;2023-04-07T10:14:19;12.07;;;2.10;;
78778;SDS011;68121;52.404;5.318;2023-04-07T10:16:48;7.47;;;1.95;;
78778;SDS011;68121;52.404;5.318;2023-04-07T10:19:16;6.78;;;1.95;;
78778;SDS011;68121;52.404;5.318;2023-04-07T10:21:44;10.48;;;2.50;;
78778;SDS011;68121;52.404;5.318;2023-04-07T10:27:06;9.65;;;2.53;;
78778;SDS011;68121;52.404;5.318;2023-04-07T10:29:37;7.45;;;1.73;;
78778;SDS011;68121;52.404;5.318;2023-04-07T10:32:06;5.65;;;2.03;;
78778;SDS011;68121;52.404;5.318;2023-04-07T10:35:15;8.88;;;1.77;;
78778;SDS011;68121;52.404;5.318;2023-04-07T10:37:23;5.57;;;1.63;;
78778;SDS011;68121;52.404;5.318;2023-04-07T10:39:51;7.90;;;2.05;;
78778;SDS011;68121;52.404;5.318;2023-04-07T10:42:51;8.02;;;2.70;;
78778;SDS011;68121;52.404;5.318;2023-04-07T10:45:17;5.35;;;2.20;;
78778;SDS011;68121;52.404;5.318;2023-04-07T10:48:22;7.97;;;2.33;;
78778;SDS011;68121;52.404;5.318;2023-04-07T10:53:29;8.00;;;2.80;;
78778;SDS011;68121;52.404;5.318;2023-04-07T10:55:56;7.65;;;1.88;;
78778;SDS011;68121;52.404;5.318;2023-04-07T10:58:32;9.23;;;2.25;;
78778;SDS011;68121;52.404;5.318;2023-04-07T11:03:31;3.92;;;1.75;;
78778;SDS011;68121;52.404;5.318;2023-04-07T11:08:36;4.05;;;1.98;;
78778;SDS011;68121;52.404;5.318;2023-04-07T11:11:04;4.78;;;2.00;;
78778;SDS011;68121;52.404;5.318;2023-04-07T11:13:40;3.83;;;1.70;;
78778;SDS011;68121;52.404;5.318;2023-04-07T11:16:07;4.50;;;2.00;;
78778;SDS011;68121;52.404;5.318;2023-04-07T11:18:34;7.53;;;2.42;;
78778;SDS011;68121;52.404;5.318;2023-04-07T11:21:04;7.90;;;2.08;;
78778;SDS011;68121;52.404;5.318;2023-04-07T11:23:38;8.27;;;1.88;;
78778;SDS011;68121;52.404;5.318;2023-04-07T11:26:05;7.88;;;2.20;;
78778;SDS011;68121;52.404;5.318;2023-04-07T11:28:33;12.27;;;2.50;;
78778;SDS011;68121;52.404;5.318;2023-04-07T11:30:59;5.10;;;2.13;;
78778;SDS011;68121;52.404;5.318;2023-04-07T11:33:29;5.15;;;2.00;;
78778;SDS011;68121;52.404;5.318;2023-04-07T11:35:57;5.55;;;2.30;;
78778;SDS011;68121;52.404;5.318;2023-04-07T11:38:36;4.10;;;2.10;;
78778;SDS011;68121;52.404;5.318;2023-04-07T11:41:10;10.75;;;2.90;;
78778;SDS011;68121;52.404;5.318;2023-04-07T11:43:37;5.90;;;2.50;;
78778;SDS011;68121;52.404;5.318;2023-04-07T11:46:16;3.85;;;1.85;;
78778;SDS011;68121;52.404;5.318;2023-04-07T11:48:43;4.88;;;2.17;;
78778;SDS011;68121;52.404;5.318;2023-04-07T11:51:15;5.38;;;2.40;;
78778;SDS011;68121;52.404;5.318;2023-04-07T11:53:42;4.72;;;2.83;;
78778;SDS011;68121;52.404;5.318;2023-04-07T11:56:09;4.63;;;2.45;;
78778;SDS011;68121;52.404;5.318;2023-04-07T11:58:47;3.25;;;2.05;;
78778;SDS011;68121;52.404;5.318;2023-04-07T12:01:14;3.53;;;1.95;;
78778;SDS011;68121;52.404;5.318;2023-04-07T12:03:57;4.18;;;2.22;;
78778;SDS011;68121;52.404;5.318;2023-04-07T12:06:32;4.28;;;2.05;;
78778;SDS011;68121;52.404;5.318;2023-04-07T12:09:00;8.50;;;2.00;;
78778;SDS011;68121;52.404;5.318;2023-04-07T12:11:27;8.25;;;2.55;;
78778;SDS011;68121;52.404;5.318;2023-04-07T12:13:53;7.75;;;2.65;;
78778;SDS011;68121;52.404;5.318;2023-04-07T12:16:19;7.43;;;2.88;;
78778;SDS011;68121;52.404;5.318;2023-04-07T12:18:46;4.75;;;2.50;;
78778;SDS011;68121;52.404;5.318;2023-04-07T12:21:12;3.22;;;1.90;;
78778;SDS011;68121;52.404;5.318;2023-04-07T12:23:38;8.27;;;2.95;;
78778;SDS011;68121;52.404;5.318;2023-04-07T12:26:05;11.10;;;3.33;;
78778;SDS011;68121;52.404;5.318;2023-04-07T12:28:32;6.97;;;3.08;;
78778;SDS011;68121;52.404;5.318;2023-04-07T12:30:58;10.63;;;4.05;;
78778;SDS011;68121;52.404;5.318;2023-04-07T12:33:24;9.98;;;4.38;;
78778;SDS011;68121;52.404;5.318;2023-04-07T12:35:50;12.80;;;4.55;;
78778;SDS011;68121;52.404;5.318;2023-04-07T12:38:16;14.20;;;5.05;;
78778;SDS011;68121;52.404;5.318;2023-04-07T12:40:42;13.32;;;4.43;;
78778;SDS011;68121;52.404;5.318;2023-04-07T12:43:08;13.23;;;4.45;;
78778;SDS011;68121;52.404;5.318;2023-04-07T12:45:34;17.67;;;5.18;;
78778;SDS011;68121;52.404;5.318;2023-04-07T12:48:01;12.85;;;3.55;;
78778;SDS011;68121;52.404;5.318;2023-04-07T12:50:27;13.57;;;5.03;;
78778;SDS011;68121;52.404;5.318;2023-04-07T12:52:54;12.73;;;4.38;;
78778;SDS011;68121;52.404;5.318;2023-04-07T12:55:23;14.93;;;4.57;;
78778;SDS011;68121;52.404;5.318;2023-04-07T12:57:49;14.25;;;5.25;;
78778;SDS011;68121;52.404;5.318;2023-04-07T13:00:15;18.35;;;6.07;;
78778;SDS011;68121;52.404;5.318;2023-04-07T13:02:41;22.85;;;6.55;;
78778;SDS011;68121;52.404;5.318;2023-04-07T13:05:08;14.93;;;4.63;;
78778;SDS011;68121;52.404;5.318;2023-04-07T13:07:34;15.25;;;4.78;;
78778;SDS011;68121;52.404;5.318;2023-04-07T13:10:02;13.73;;;4.70;;
78778;SDS011;68121;52.404;5.318;2023-04-07T13:12:30;14.15;;;5.25;;
78778;SDS011;68121;52.404;5.318;2023-04-07T13:14:56;17.92;;;5.35;;
78778;SDS011;68121;52.404;5.318;2023-04-07T13:17:22;16.73;;;6.18;;
78778;SDS011;68121;52.404;5.318;2023-04-07T13:19:48;15.85;;;5.45;;
78778;SDS011;68121;52.404;5.318;2023-04-07T13:22:14;17.45;;;5.43;;
78778;SDS011;68121;52.404;5.318;2023-04-07T13:24:43;14.88;;;4.57;;
78778;SDS011;68121;52.404;5.318;2023-04-07T13:27:09;16.42;;;4.70;;
78778;SDS011;68121;52.404;5.318;2023-04-07T13:29:35;16.60;;;4.90;;
78778;SDS011;68121;52.404;5.318;2023-04-07T13:32:05;14.43;;;5.10;;
78778;SDS011;68121;52.404;5.318;2023-04-07T13:34:32;19.08;;;5.43;;
78778;SDS011;68121;52.404;5.318;2023-04-07T13:37:00;13.98;;;5.35;;
78778;SDS011;68121;52.404;5.318;2023-04-07T13:39:27;11.48;;;4.90;;
78778;SDS011;68121;52.404;5.318;2023-04-07T13:41:53;16.88;;;5.82;;
78778;SDS011;68121;52.404;5.318;2023-04-07T13:44:19;18.58;;;5.80;;
78778;SDS011;68121;52.404;5.318;2023-04-07T13:46:45;16.70;;;6.00;;
78778;SDS011;68121;52.404;5.318;2023-04-07T13:49:11;19.42;;;5.93;;
78778;SDS011;68121;52.404;5.318;2023-04-07T13:51:39;18.55;;;6.13;;
78778;SDS011;68121;52.404;5.318;2023-04-07T13:54:05;18.90;;;6.13;;
78778;SDS011;68121;52.404;5.318;2023-04-07T13:56:32;20.13;;;5.57;;
78778;SDS011;68121;52.404;5.318;2023-04-07T13:59:00;20.33;;;6.00;;
78778;SDS011;68121;52.404;5.318;2023-04-07T14:01:26;20.90;;;5.90;;
78778;SDS011;68121;52.404;5.318;2023-04-07T14:03:53;20.40;;;6.10;;
78778;SDS011;68121;52.404;5.318;2023-04-07T14:06:19;17.25;;;6.10;;
78778;SDS011;68121;52.404;5.318;2023-04-07T14:08:49;15.68;;;6.70;;
78778;SDS011;68121;52.404;5.318;2023-04-07T14:11:16;15.27;;;5.90;;
78778;SDS011;68121;52.404;5.318;2023-04-07T14:13:43;19.95;;;6.18;;
78778;SDS011;68121;52.404;5.318;2023-04-07T14:16:10;17.77;;;5.68;;
78778;SDS011;68121;52.404;5.318;2023-04-07T14:18:37;16.75;;;5.68;;
78778;SDS011;68121;52.404;5.318;2023-04-07T14:21:03;15.10;;;6.30;;
78778;SDS011;68121;52.404;5.318;2023-04-07T14:23:30;15.95;;;5.60;;
78778;SDS011;68121;52.404;5.318;2023-04-07T14:25:57;17.80;;;5.60;;
78778;SDS011;68121;52.404;5.318;2023-04-07T14:28:23;17.92;;;6.75;;
78778;SDS011;68121;52.404;5.318;2023-04-07T14:30:49;13.00;;;5.53;;
78778;SDS011;68121;52.404;5.318;2023-04-07T14:33:15;21.23;;;6.95;;
78778;SDS011;68121;52.404;5.318;2023-04-07T14:35:42;22.33;;;5.65;;
78778;SDS011;68121;52.404;5.318;2023-04-07T14:38:08;16.88;;;6.75;;
78778;SDS011;68121;52.404;5.318;2023-04-07T14:40:34;16.85;;;5.03;;
78778;SDS011;68121;52.404;5.318;2023-04-07T14:43:01;16.38;;;5.47;;
78778;SDS011;68121;52.404;5.318;2023-04-07T14:45:28;16.15;;;6.28;;
78778;SDS011;68121;52.404;5.318;2023-04-07T14:47:54;18.15;;;6.15;;
78778;SDS011;68121;52.404;5.318;2023-04-07T14:50:21;17.65;;;6.00;;
78778;SDS011;68121;52.404;5.318;2023-04-07T14:52:48;18.30;;;5.70;;
78778;SDS011;68121;52.404;5.318;2023-04-07T14:55:14;16.75;;;6.45;;
78778;SDS011;68121;52.404;5.318;2023-04-07T14:57:40;16.05;;;5.90;;